createdAt,value
2023-05-05T00:03:03.218Z,7.0
2023-05-05T00:08:09.372Z,7.0
2023-05-05T00:13:15.576Z,9.0
2023-05-05T00:18:21.792Z,8.0
2023-05-05T00:23:27.990Z,8.0
2023-05-05T00:28:34.181Z,8.0
2023-05-05T00:33:40.390Z,9.0
2023-05-05T00:38:46.608Z,9.0
2023-05-05T00:43:51.846Z,10.0
2023-05-05T00:48:58.081Z,10.0
2023-05-05T00:54:04.274Z,10.0
2023-05-05T00:59:09.508Z,11.0
2023-05-05T01:04:15.712Z,11.0
2023-05-05T01:09:21.913Z,11.0
2023-05-05T01:14:28.119Z,12.0
2023-05-05T01:19:34.336Z,13.0
2023-05-05T01:24:40.543Z,12.0
2023-05-05T01:29:46.749Z,13.0
2023-05-05T01:34:52.978Z,13.0
2023-05-05T01:39:59.156Z,13.0
2023-05-05T01:45:05.373Z,12.0
2023-05-05T01:50:11.585Z,12.0
2023-05-05T01:55:17.799Z,12.0
2023-05-05T02:00:23.992Z,12.0
2023-05-05T02:05:30.205Z,12.0
2023-05-05T02:10:36.415Z,12.0
2023-05-05T02:15:42.638Z,11.0
2023-05-05T02:20:48.850Z,12.0
2023-05-05T02:25:55.058Z,12.0
2023-05-05T02:31:01.314Z,12.0
2023-05-05T02:36:07.464Z,12.0
2023-05-05T02:41:13.667Z,11.0
2023-05-05T02:46:18.917Z,10.0
2023-05-05T02:51:25.103Z,11.0
2023-05-05T02:56:30.359Z,11.0
2023-05-05T03:01:36.578Z,11.0
2023-05-05T03:06:42.766Z,11.0
2023-05-05T03:11:48.979Z,11.0
2023-05-05T03:16:55.181Z,10.5
2023-05-05T03:22:01.401Z,12.0
2023-05-05T03:27:07.593Z,12.0
2023-05-05T03:32:13.966Z,11.0
2023-05-05T03:37:20.014Z,11.0
2023-05-05T03:42:26.228Z,11.0
2023-05-05T03:47:32.456Z,11.0
2023-05-05T03:52:38.642Z,11.0
2023-05-05T03:57:44.859Z,10.5
2023-05-05T04:02:51.150Z,10.0
2023-05-05T04:07:57.265Z,8.0
2023-05-05T04:13:03.552Z,8.0
2023-05-05T04:18:09.764Z,8.0
2023-05-05T04:23:15.889Z,8.0
2023-05-05T04:28:22.281Z,8.0
2023-05-05T04:33:28.305Z,8.0
2023-05-05T04:38:34.553Z,9.0
2023-05-05T04:43:39.759Z,9.0
2023-05-05T04:48:45.952Z,9.0
2023-05-05T04:53:51.187Z,10.0
2023-05-05T04:58:57.398Z,10.0
2023-05-05T05:04:03.664Z,11.0
2023-05-05T05:09:09.828Z,10.0
2023-05-05T05:14:16.032Z,11.0
2023-05-05T05:19:22.229Z,13.0
2023-05-05T05:24:28.440Z,14.0
2023-05-05T05:29:34.652Z,13.0
2023-05-05T05:34:40.858Z,13.0
2023-05-05T05:39:47.071Z,13.0
2023-05-05T05:44:53.266Z,14.0
2023-05-05T05:49:59.475Z,15.0
2023-05-05T05:55:05.692Z,14.0
2023-05-05T06:00:11.899Z,15.0
2023-05-05T06:05:18.096Z,15.0
2023-05-05T06:10:27.168Z,15.0
2023-05-05T06:15:30.526Z,16.0
2023-05-05T06:20:36.730Z,16.0
2023-05-05T06:25:42.932Z,16.0
2023-05-05T06:30:49.145Z,17.0
2023-05-05T06:35:55.340Z,18.0
2023-05-05T06:41:00.579Z,18.0
2023-05-05T06:46:06.804Z,17.0
2023-05-05T06:51:12.050Z,16.0
2023-05-05T06:56:18.242Z,15.0
2023-05-05T07:01:24.644Z,16.0
2023-05-05T07:06:30.711Z,15.0
2023-05-05T07:11:36.874Z,15.0
2023-05-05T07:16:43.136Z,15.0
2023-05-05T07:21:49.293Z,14.0
2023-05-05T07:26:55.516Z,13.0
2023-05-05T07:32:01.782Z,12.0
2023-05-05T07:37:07.918Z,12.0
2023-05-05T07:42:14.124Z,11.5
2023-05-05T07:47:20.366Z,11.0
2023-05-05T07:52:43.708Z,10.0
2023-05-05T07:57:32.748Z,9.0
2023-05-05T08:02:39.022Z,9.5
2023-05-05T08:07:45.168Z,8.0
2023-05-05T08:12:51.427Z,7.0
2023-05-05T08:17:57.617Z,4.0
2023-05-05T08:23:03.793Z,5.0
2023-05-05T08:28:10.003Z,6.0
2023-05-05T08:33:16.282Z,6.0
2023-05-05T08:38:21.447Z,6.0
2023-05-05T08:43:27.769Z,6.0
2023-05-05T08:48:32.906Z,4.0
2023-05-05T08:53:39.110Z,7.0
2023-05-05T08:58:45.318Z,5.0
2023-05-05T09:03:52.571Z,5.0
2023-05-05T09:08:59.642Z,4.0
2023-05-05T09:14:03.956Z,6.0
2023-05-05T09:19:10.146Z,4.0
2023-05-05T09:24:16.374Z,5.0
2023-05-05T09:29:22.564Z,4.0
2023-05-05T09:34:28.780Z,3.0
2023-05-05T09:39:35.053Z,3.0
2023-05-05T09:44:41.199Z,3.0
2023-05-05T09:49:47.423Z,2.0
2023-05-05T09:54:53.622Z,2.0
2023-05-05T09:59:59.821Z,2.0
2023-05-05T10:05:06.119Z,2.0
2023-05-05T10:10:12.298Z,1.0
2023-05-05T10:15:18.447Z,2.0
2023-05-05T10:20:24.674Z,2.0
2023-05-05T10:25:30.861Z,4.0
2023-05-05T10:30:37.093Z,4.0
2023-05-05T10:35:42.319Z,4.0
2023-05-05T10:40:48.542Z,3.0
2023-05-05T10:45:54.843Z,2.0
2023-05-05T10:51:00.951Z,2.0
2023-05-05T10:56:07.157Z,3.0
2023-05-05T11:01:13.408Z,3.0
2023-05-05T11:06:19.581Z,3.0
2023-05-05T11:11:25.781Z,3.0
2023-05-05T11:16:32.030Z,3.0
2023-05-05T11:21:38.199Z,2.0
2023-05-05T11:26:44.412Z,3.0
2023-05-05T11:31:50.626Z,3.0
2023-05-05T11:36:56.838Z,4.0
2023-05-05T11:42:09.473Z,3.0
2023-05-05T11:47:09.249Z,2.0
2023-05-05T11:52:15.450Z,1.0
2023-05-05T11:57:21.792Z,1.0
2023-05-05T12:02:28.015Z,1.0
2023-05-05T12:07:34.081Z,1.0
2023-05-05T12:12:40.436Z,1.0
2023-05-05T12:17:46.553Z,1.0
2023-05-05T12:22:51.746Z,1.0
2023-05-05T12:27:57.952Z,1.0
2023-05-05T12:33:03.200Z,1.0
2023-05-05T12:38:09.388Z,1.0
2023-05-05T12:43:14.669Z,1.0
2023-05-05T12:48:20.838Z,1.0
2023-05-05T12:53:27.042Z,1.0
2023-05-05T12:58:33.268Z,2.0
2023-05-05T13:03:39.490Z,2.0
2023-05-05T13:08:44.700Z,2.0
2023-05-05T13:13:50.899Z,2.0
2023-05-05T13:18:57.105Z,2.0
2023-05-05T13:29:09.519Z,2.0
2023-05-05T13:34:15.733Z,2.0
2023-05-05T13:39:21.933Z,3.0
2023-05-05T13:44:28.143Z,2.0
2023-05-05T13:49:34.354Z,2.0
2023-05-05T13:54:40.563Z,3.0
2023-05-05T13:59:46.773Z,3.0
2023-05-05T14:04:52.985Z,3.0
2023-05-05T14:09:59.180Z,3.0
2023-05-05T14:15:05.559Z,3.0
2023-05-05T14:20:11.602Z,4.0
2023-05-05T14:25:17.834Z,4.0
2023-05-05T14:30:23.050Z,3.0
2023-05-05T14:35:29.272Z,4.0
2023-05-05T14:40:34.492Z,2.0
2023-05-05T14:45:40.703Z,1.0
2023-05-05T14:50:46.913Z,1.0
2023-05-05T14:55:53.117Z,1.0
2023-05-05T15:00:59.321Z,1.0
2023-05-05T15:06:05.549Z,1.0
2023-05-05T15:11:11.742Z,1.0
2023-05-05T15:16:17.992Z,1.0
2023-05-05T15:21:24.162Z,1.0
2023-05-05T15:26:30.382Z,1.0
2023-05-05T15:31:36.982Z,0.0
2023-05-05T15:36:42.791Z,1.0
2023-05-05T15:41:48.991Z,1.0
2023-05-05T15:46:55.232Z,1.0
2023-05-05T15:52:01.816Z,2.0
2023-05-05T15:57:07.616Z,1.0
2023-05-05T16:02:13.890Z,1.0
2023-05-05T16:07:20.027Z,1.0
2023-05-05T16:12:26.254Z,1.0
2023-05-05T16:17:32.474Z,1.0
2023-05-05T16:22:38.653Z,1.0
2023-05-05T16:27:43.877Z,1.0
2023-05-05T16:32:50.134Z,0.0
2023-05-05T16:37:55.332Z,1.0
2023-05-05T16:48:09.104Z,1.0
2023-05-05T16:53:13.970Z,1.0
2023-05-05T16:58:20.174Z,1.0
2023-05-05T17:03:26.382Z,1.0
2023-05-05T17:08:32.587Z,1.0
2023-05-05T17:13:38.802Z,1.0
2023-05-05T17:18:44.996Z,1.0
2023-05-05T17:23:51.215Z,1.0
2023-05-05T17:28:57.431Z,1.0
2023-05-05T17:34:03.631Z,1.0
2023-05-05T17:39:09.833Z,1.0
2023-05-05T17:44:16.048Z,1.0
2023-05-05T17:49:22.248Z,1.0
2023-05-05T17:54:28.488Z,1.0
2023-05-05T17:59:34.664Z,2.0
2023-05-05T18:04:40.882Z,2.0
2023-05-05T18:09:47.085Z,2.0
2023-05-05T18:14:53.294Z,2.0
2023-05-05T18:19:59.498Z,2.0
2023-05-05T18:25:07.714Z,2.0
2023-05-05T18:30:10.961Z,2.0
2023-05-05T18:35:17.167Z,2.0
2023-05-05T18:40:23.361Z,2.0
2023-05-05T18:45:29.585Z,2.0
2023-05-05T18:50:35.784Z,3.0
2023-05-05T18:55:41.992Z,2.0
2023-05-05T19:00:48.239Z,3.0
2023-05-05T19:05:54.421Z,3.0
2023-05-05T19:11:00.612Z,3.0
2023-05-05T19:16:06.817Z,3.0
2023-05-05T19:21:13.025Z,3.0
2023-05-05T19:26:19.245Z,3.0
2023-05-05T19:31:25.460Z,3.0
2023-05-05T19:36:31.669Z,4.0
2023-05-05T19:41:37.866Z,3.0
2023-05-05T19:46:44.133Z,3.0
2023-05-05T19:51:50.272Z,5.0
2023-05-05T19:56:57.271Z,6.0
2023-05-05T20:02:02.716Z,7.0
2023-05-05T20:07:08.909Z,7.0
2023-05-05T20:12:15.112Z,6.0
2023-05-05T20:22:26.636Z,5.0
2023-05-05T20:27:32.994Z,5.0
2023-05-05T20:32:38.032Z,5.0
2023-05-05T20:37:43.270Z,4.0
2023-05-05T20:42:49.448Z,4.0
2023-05-05T20:47:54.715Z,4.0
2023-05-05T20:53:00.894Z,4.0
2023-05-05T20:58:07.104Z,4.0
2023-05-05T21:03:13.401Z,4.0
2023-05-05T21:08:19.517Z,4.0
2023-05-05T21:13:25.724Z,4.0
2023-05-05T21:18:31.936Z,4.0
2023-05-05T21:23:38.139Z,4.0
2023-05-05T21:28:44.344Z,4.0
2023-05-05T21:33:50.565Z,4.0
2023-05-05T21:38:58.464Z,4.0
2023-05-05T21:44:02.983Z,5.0
2023-05-05T21:49:09.206Z,5.0
2023-05-05T21:54:15.408Z,5.0
2023-05-05T21:59:21.665Z,6.0
2023-05-05T22:04:27.827Z,9.0
2023-05-05T22:09:34.066Z,9.0
2023-05-05T22:14:40.273Z,9.0
2023-05-05T22:19:46.482Z,10.0
2023-05-05T22:24:52.688Z,10.0
2023-05-05T22:29:58.927Z,10.0
2023-05-05T22:35:04.165Z,10.5
2023-05-05T22:40:10.369Z,11.0
2023-05-05T22:45:16.581Z,11.0
2023-05-05T22:50:21.828Z,12.0
2023-05-05T22:55:28.053Z,12.0
2023-05-05T23:00:34.259Z,12.0
2023-05-05T23:05:40.477Z,12.0
2023-05-05T23:10:46.692Z,10.0
2023-05-05T23:15:52.912Z,9.0
2023-05-05T23:20:59.114Z,9.0
2023-05-05T23:26:05.332Z,10.0
2023-05-05T23:31:11.596Z,10.0
2023-05-05T23:36:17.757Z,10.5
2023-05-05T23:41:23.983Z,11.0
2023-05-05T23:46:30.230Z,12.0
2023-05-05T23:51:36.387Z,12.0
2023-05-05T23:56:42.622Z,12.0
